Chassell, Michigan
Current Conditions -  °F | °C
As of 5:53 PM on Wednesday 17 Dec 2014 (Local Time) from KCMX Reporting Station
Unknown Precip Unknown Precip  
Wind Chill: 12°   Ceiling: 1100
Heat Index: 23°   Visibility: 10mi
Dew Point: 19°   Wind: 10mph
Humidity: 85%   Direction: 20°NNE
Pressure: 30.2"   Gusts: NA
Location:  47.03°N, 88.53°W
Report Text: KCMX 172253Z AUTO 02009KT 10SM UP OVC011 M05/M07 A3020 RMK AO2 UPE14B38 SLP245 P0000 T10501072
Loading
Personal Weather Stations






























Interactive Weather Map New forecast layout! Learn more

10-Day Weather Forecast

Advertisements
Track Severe Weather on mobile